Accueil
METAR-TAF:

METAR-TAF

Aéroports :

Hartness State Airport

Springfield, Vermont, États-Unis

latitude: 43-20-33N, longitude: 072-31-18W, altitude: 175 m

Observation

Le bulletin a été fait il y a 49 minutes, à 22:54 UTC
Vent 6 kt de direction variable
Température 23°C
Humidité 29%
Pression 1011 hPa
Visibilité: 16.1 km
Ciel clair

METAR: KVSF 212254Z AUTO VRB06KT 10SM CLR 23/04 A2984 RMK AO2 SLP105 T02330044

Heure: 19:43 (23:43 UTC)


TAF: absent

Observations et prévisions météorologiques de plus de 4000 aéroports (messages METAR et TAF).

Les stations disponibles sont représentées par des disques jaunes et rouges sur la carte.

Passer la souris dessus pour voir le nom de la station.

Cliquer dessus pour voir les observations et prévisions météorologiques.

Pour changer de carte: cliquez sur les boutons verts avec une croix noire pour zoomer, sur le bouton vert avec un tiret pour effectuer un zoom arrière, ou sur les flèches vertes pour les cartes adjacentes.


METAR-TAF: